Time;durP1;ratioP1;P1;durP2;ratioP2;P2;SDS_P1;SDS_P2;PMS_P1;PMS_P2;Temp;Humidity;BMP_temperature;BMP_pressure;BME280_temperature;BME280_humidity;BME280_pressure;Samples;Min_cycle;Max_cycle;Signal;HPM_P1;HPM_P2
2022/09/21 00:01:08;;;;;;;;;;;;;;;7.89;82.69;99771.13;5073253;28;1190;-71
2022/09/21 00:03:35;;;;;;;;;;;;;;;7.90;83.18;99777.44;5091473;28;842;-71
2022/09/21 00:06:05;;;;;;;;;;;;;;;7.87;83.11;99768.00;5091414;28;791;-71
2022/09/21 00:08:32;;;;;;;;;;;;;;;7.88;84.06;99772.31;5073182;28;1914;-72
2022/09/21 00:10:59;;;;;;;;;;;;;;;7.97;83.58;99772.75;5091306;28;870;-73
2022/09/21 00:13:27;;;;;;;;;;;;;;;8.08;83.20;99774.75;5091302;28;805;-72
2022/09/21 00:15:54;;;;;;;;;;;;;;;8.16;82.70;99779.13;5091215;28;838;-72
2022/09/21 00:18:22;;;;;;;;;;;;;;;8.28;82.74;99786.25;5091271;28;927;-74
2022/09/21 00:20:49;;;;;;;;;;;;;;;8.40;82.81;99783.16;5091180;28;822;-72
2022/09/21 00:23:16;;;;;;;;;;;;;;;8.52;82.81;99784.81;5091393;28;872;-74
2022/09/21 00:25:43;;;;;;;;;;;;;;;8.67;82.32;99789.19;5091622;28;861;-74
2022/09/21 00:28:09;;;;;;;;;;;;;;;8.76;82.07;99784.06;5090909;28;1909;-75
2022/09/21 00:30:36;;;;;;;;;;;;;;;8.90;82.33;99790.81;5091235;28;861;-74
2022/09/21 00:33:03;;;;;;;;;;;;;;;9.04;81.56;99779.00;5091056;28;830;-73
2022/09/21 00:35:29;;;;;;;;;;;;;;;9.17;81.27;99778.25;5091469;28;854;-75
2022/09/21 00:37:59;;;;;;;;;;;;;;;9.29;81.09;99781.78;5094885;28;856;-74
2022/09/21 00:40:26;;;;;;;;;;;;;;;9.31;81.47;99782.16;5094963;28;842;-74
2022/09/21 00:42:53;;;;;;;;;;;;;;;9.20;81.35;99785.72;5094717;28;822;-74
2022/09/21 00:45:22;;;;;;;;;;;;;;;9.03;82.15;99778.22;5094769;28;837;-74
2022/09/21 00:47:51;;;;;;;;;;;;;;;8.76;82.87;99775.81;5094516;28;1893;-73
2022/09/21 00:50:23;;;;;;;;;;;;;;;8.55;83.75;99782.03;5094546;28;854;-73
2022/09/21 00:52:52;;;;;;;;;;;;;;;8.47;84.03;99785.16;5094472;28;782;-73
2022/09/21 00:55:25;;;;;;;;;;;;;;;8.40;84.56;99785.91;5094963;28;802;-72
2022/09/21 00:57:55;;;;;;;;;;;;;;;8.31;84.58;99785.50;5094972;28;790;-73
2022/09/21 01:00:22;;;;;;;;;;;;;;;8.26;84.49;99783.91;5094378;28;787;-74
2022/09/21 01:02:49;;;;;;;;;;;;;;;8.41;85.02;99783.97;5094582;28;818;-72
2022/09/21 01:05:16;;;;;;;;;;;;;;;8.31;84.40;99774.47;5094249;28;877;-72
2022/09/21 01:07:45;;;;;;;;;;;;;;;8.31;84.48;99785.50;5076163;28;1124;-73
2022/09/21 01:10:13;;;;;;;;;;;;;;;8.30;84.17;99781.94;5094062;28;1937;-75
2022/09/21 01:13:00;;;;;;;;;;;;;;;8.22;84.23;99777.59;5093980;28;872;-73
2022/09/21 01:15:27;;;;;;;;;;;;;;;8.03;84.86;99784.19;5094122;28;869;-73
2022/09/21 01:18:00;;;;;;;;;;;;;;;7.85;85.59;99780.53;5075942;28;1268;-74
2022/09/21 01:20:46;;;;;;;;;;;;;;;7.78;86.13;99773.03;5093931;28;811;-74
2022/09/21 01:23:31;;;;;;;;;;;;;;;7.71;86.11;99776.53;5094222;28;790;-74
2022/09/21 01:26:20;;;;;;;;;;;;;;;7.84;86.35;99774.25;5075562;28;1297;-72
2022/09/21 01:29:02;;;;;;;;;;;;;;;7.96;85.96;99781.41;5093447;28;1996;-74
2022/09/21 01:31:33;;;;;;;;;;;;;;;8.00;86.20;99773.16;5093845;28;782;-73
2022/09/21 01:34:04;;;;;;;;;;;;;;;8.00;86.37;99773.97;5093600;28;799;-71
2022/09/21 01:36:32;;;;;;;;;;;;;;;8.00;86.05;99771.22;5093623;28;818;-72
2022/09/21 01:39:03;;;;;;;;;;;;;;;7.97;85.73;99766.47;5093417;28;860;-73
2022/09/21 01:41:31;;;;;;;;;;;;;;;7.95;85.96;99769.59;5075768;28;1322;-73
2022/09/21 01:44:07;;;;;;;;;;;;;;;7.92;86.08;99764.88;5093753;28;866;-74
2022/09/21 01:46:35;;;;;;;;;;;;;;;7.92;85.90;99762.13;5093443;28;834;-72
2022/09/21 01:49:09;;;;;;;;;;;;;;;7.86;86.16;99758.16;5093373;28;1893;-72
2022/09/21 01:51:41;;;;;;;;;;;;;;;7.65;86.64;99747.03;5093278;28;818;-72
2022/09/21 01:54:11;;;;;;;;;;;;;;;7.49;87.55;99759.09;5093909;28;834;-74
2022/09/21 01:57:01;;;;;;;;;;;;;;;7.51;87.16;99756.78;5093171;28;882;-73
2022/09/21 01:59:39;;;;;;;;;;;;;;;7.53;87.94;99754.44;5093291;28;858;-72
2022/09/21 02:02:10;;;;;;;;;;;;;;;7.45;87.82;99758.28;5093125;28;881;-73
2022/09/21 02:04:38;;;;;;;;;;;;;;;7.28;88.15;99756.22;5093433;28;822;-74
2022/09/21 02:07:05;;;;;;;;;;;;;;;7.18;89.35;99754.94;5093309;28;845;-74
2022/09/21 02:09:33;;;;;;;;;;;;;;;7.14;89.13;99756.88;5093145;28;1917;-72
2022/09/21 02:12:01;;;;;;;;;;;;;;;7.06;89.08;99755.22;5093207;28;869;-72
2022/09/21 02:14:28;;;;;;;;;;;;;;;6.95;89.18;99758.66;5092957;28;806;-72
2022/09/21 02:17:13;;;;;;;;;;;;;;;6.86;89.73;99751.91;5092948;28;817;-73
2022/09/21 02:19:40;;;;;;;;;;;;;;;6.79;90.70;99762.84;5093437;28;829;-75
2022/09/21 02:22:09;;;;;;;;;;;;;;;6.72;90.76;99756.13;5093026;28;857;-74
2022/09/21 02:24:43;;;;;;;;;;;;;;;6.75;91.46;99762.81;5092835;28;798;-73
2022/09/21 02:27:18;;;;;;;;;;;;;;;6.71;91.36;99762.75;5092818;28;893;-74
2022/09/21 02:29:56;;;;;;;;;;;;;;;6.70;91.83;99755.69;5092376;28;1967;-72
2022/09/21 02:32:23;;;;;;;;;;;;;;;6.82;91.58;99746.38;5092809;28;857;-70
2022/09/21 02:34:52;;;;;;;;;;;;;;;6.90;91.91;99736.25;5092564;28;802;-71
2022/09/21 02:37:30;;;;;;;;;;;;;;;7.01;92.20;99731.63;5092421;28;838;-71
2022/09/21 02:40:29;;;;;;;;;;;;;;;7.13;92.27;99736.84;5093067;28;849;-71
2022/09/21 02:43:01;;;;;;;;;;;;;;;7.02;91.47;99740.66;5058124;28;1136;-73
2022/09/21 02:45:35;;;;;;;;;;;;;;;6.88;92.06;99735.84;5092389;28;895;-72
2022/09/21 02:48:17;;;;;;;;;;;;;;;6.79;92.59;99749.91;5092298;28;1952;-73
2022/09/21 02:50:53;;;;;;;;;;;;;;;6.73;93.09;99749.44;5092257;28;846;-73
2022/09/21 02:53:24;;;;;;;;;;;;;;;6.74;93.08;99745.53;5092140;28;849;-73
2022/09/21 02:55:52;;;;;;;;;;;;;;;6.73;93.42;99754.16;5092323;28;790;-72
2022/09/21 02:58:20;;;;;;;;;;;;;;;6.68;93.72;99736.06;5091743;28;829;-74
2022/09/21 03:00:47;;;;;;;;;;;;;;;6.74;94.11;99737.31;5092120;28;802;-74
2022/09/21 03:03:16;;;;;;;;;;;;;;;6.75;94.03;99740.84;5092285;28;861;-73
2022/09/21 03:05:44;;;;;;;;;;;;;;;6.57;93.21;99748.09;5091997;28;957;-72
2022/09/21 03:08:11;;;;;;;;;;;;;;;6.48;94.18;99743.69;5092011;28;1945;-71
2022/09/21 03:10:39;;;;;;;;;;;;;;;6.42;93.92;99749.91;5091845;28;814;-72
2022/09/21 03:13:07;;;;;;;;;;;;;;;6.37;94.27;99753.00;5091935;28;860;-71
2022/09/21 03:15:37;;;;;;;;;;;;;;;6.44;94.24;99753.06;5091886;28;889;-72
2022/09/21 03:18:05;;;;;;;;;;;;;;;6.55;94.54;99762.22;5091905;28;841;-71
2022/09/21 03:20:32;;;;;;;;;;;;;;;6.49;94.34;99760.97;5092114;28;811;-73
2022/09/21 03:22:59;;;;;;;;;;;;;;;6.47;94.74;99747.63;5073792;28;1365;-74
2022/09/21 03:25:26;;;;;;;;;;;;;;;6.52;95.00;99755.50;5091708;28;846;-73
2022/09/21 03:27:53;;;;;;;;;;;;;;;6.50;94.88;99757.06;5091835;28;1898;-74
2022/09/21 03:30:20;;;;;;;;;;;;;;;6.45;95.16;99754.66;5092059;28;826;-73
2022/09/21 03:32:51;;;;;;;;;;;;;;;6.43;95.92;99752.28;5091981;28;850;-73
2022/09/21 03:35:18;;;;;;;;;;;;;;;6.53;96.40;99754.34;5091748;28;810;-74
2022/09/21 03:37:45;;;;;;;;;;;;;;;6.60;97.04;99756.38;5091522;28;885;-74
2022/09/21 03:40:12;;;;;;;;;;;;;;;6.84;97.35;99757.00;5091618;28;857;-72
2022/09/21 03:42:40;;;;;;;;;;;;;;;6.95;96.23;99755.91;5091514;28;901;-74
2022/09/21 03:45:08;;;;;;;;;;;;;;;7.01;95.20;99761.09;5091802;28;814;-73
2022/09/21 03:47:35;;;;;;;;;;;;;;;7.15;96.27;99756.50;5091510;28;881;-74
2022/09/21 03:50:02;;;;;;;;;;;;;;;7.39;95.39;99765.31;5091850;28;1992;-73
2022/09/21 03:52:28;;;;;;;;;;;;;;;7.57;94.89;99765.44;5091537;28;802;-72
2022/09/21 03:54:55;;;;;;;;;;;;;;;7.65;94.29;99758.81;5091627;28;798;-72
2022/09/21 03:57:21;;;;;;;;;;;;;;;7.63;94.07;99765.88;5091441;28;872;-73
2022/09/21 03:59:47;;;;;;;;;;;;;;;7.63;94.02;99758.41;5091778;28;884;-73
2022/09/21 04:02:14;;;;;;;;;;;;;;;7.60;92.70;99759.19;5091690;28;913;-74
2022/09/21 04:04:41;;;;;;;;;;;;;;;7.69;93.02;99750.59;5091458;28;859;-73
2022/09/21 04:07:08;;;;;;;;;;;;;;;7.91;92.99;99765.25;5091575;28;794;-74
2022/09/21 04:09:34;;;;;;;;;;;;;;;7.96;92.69;99759.38;5091428;28;1953;-72
2022/09/21 04:12:01;;;;;;;;;;;;;;;7.89;92.10;99762.09;5076379;28;1135;-72
2022/09/21 04:14:28;;;;;;;;;;;;;;;7.75;91.76;99766.34;5077303;28;897;-72
2022/09/21 04:16:55;;;;;;;;;;;;;;;7.52;90.90;99761.09;5095774;28;849;-72
2022/09/21 04:19:22;;;;;;;;;;;;;;;7.30;90.76;99762.91;5095465;28;895;-72
2022/09/21 04:21:50;;;;;;;;;;;;;;;7.13;91.58;99747.06;5095403;28;872;-73
2022/09/21 04:24:20;;;;;;;;;;;;;;;7.05;91.72;99753.66;5095261;28;821;-74
2022/09/21 04:26:46;;;;;;;;;;;;;;;6.99;92.36;99744.19;5094997;28;864;-73
2022/09/21 04:29:13;;;;;;;;;;;;;;;7.00;93.47;99745.75;5094709;28;1910;-73
2022/09/21 04:31:40;;;;;;;;;;;;;;;7.13;93.44;99756.09;5076811;28;861;-71
2022/09/21 04:34:08;;;;;;;;;;;;;;;7.15;93.19;99759.25;5094875;28;917;-72
2022/09/21 04:36:35;;;;;;;;;;;;;;;7.15;93.74;99763.97;5094959;28;857;-74
2022/09/21 04:39:02;;;;;;;;;;;;;;;7.24;92.72;99767.16;5095145;28;759;-74
2022/09/21 04:41:28;;;;;;;;;;;;;;;7.37;92.90;99773.16;5095199;28;774;-74
2022/09/21 04:43:55;;;;;;;;;;;;;;;7.55;93.41;99776.84;5094735;28;806;-74
2022/09/21 04:46:22;;;;;;;;;;;;;;;7.75;92.85;99769.09;5094773;28;818;-73
2022/09/21 04:48:48;;;;;;;;;;;;;;;7.98;92.38;99774.34;5094456;28;1894;-74
2022/09/21 04:51:16;;;;;;;;;;;;;;;8.31;92.10;99771.72;5076480;28;1249;-72
2022/09/21 04:53:43;;;;;;;;;;;;;;;8.66;91.11;99762.78;5094569;28;907;-72
2022/09/21 04:56:12;;;;;;;;;;;;;;;9.06;90.03;99776.66;5094527;28;853;-73
2022/09/21 04:58:39;;;;;;;;;;;;;;;9.41;88.17;99775.88;5094605;28;814;-72
2022/09/21 05:01:06;;;;;;;;;;;;;;;9.75;86.16;99770.69;5094364;28;794;-73
2022/09/21 05:32:41;;;;;;;;;;;;;;;12.41;72.56;99744.59;5361774;23;1681;-72
2022/09/21 05:35:20;;;;;;;;;;;;;;;12.72;71.21;99758.44;4974946;28;834;-72
2022/09/21 05:37:49;;;;;;;;;;;;;;;12.86;70.18;99749.91;4974836;28;823;-72
2022/09/21 05:40:16;;;;;;;;;;;;;;;13.03;70.22;99750.06;4974850;28;889;-72
2022/09/21 05:42:43;;;;;;;;;;;;;;;13.33;69.50;99748.41;4974879;28;799;-73
2022/09/21 05:45:20;;;;;;;;;;;;;;;13.61;67.97;99755.44;4974590;28;791;-73
2022/09/21 05:47:53;;;;;;;;;;;;;;;13.88;66.59;99747.78;4974816;28;822;-72
2022/09/21 05:50:27;;;;;;;;;;;;;;;14.12;66.40;99750.50;4974573;28;1906;-72
2022/09/21 05:53:13;;;;;;;;;;;;;;;14.39;65.25;99755.13;4974446;28;819;-73
2022/09/21 05:55:57;;;;;;;;;;;;;;;14.58;64.40;99756.34;4974507;28;804;-74
2022/09/21 05:58:32;;;;;;;;;;;;;;;14.65;63.19;99754.19;4974327;28;782;-74
2022/09/21 06:01:21;;;;;;;;;;;;;;;14.57;62.73;99758.31;4974311;28;803;-73
2022/09/21 06:03:49;;;;;;;;;;;;;;;14.53;62.50;99765.16;4938280;28;1161;-75
2022/09/21 06:06:17;;;;;;;;;;;;;;;14.32;62.42;99756.06;4974309;28;822;-75
2022/09/21 06:08:43;;;;;;;;;;;;;;;14.08;62.46;99758.94;4974101;28;1953;-73
2022/09/21 06:11:10;;;;;;;;;;;;;;;13.84;62.06;99762.97;4974267;28;822;-72
2022/09/21 06:13:37;;;;;;;;;;;;;;;13.60;63.08;99759.44;4972860;28;1155;-73
2022/09/21 06:16:04;;;;;;;;;;;;;;;13.41;63.72;99760.97;4973018;28;1291;-74
2022/09/21 06:18:30;;;;;;;;;;;;;;;13.56;63.38;99759.50;4974040;28;803;-75
2022/09/21 06:20:57;;;;;;;;;;;;;;;13.69;62.33;99762.44;4973936;28;835;-73
2022/09/21 06:23:23;;;;;;;;;;;;;;;13.72;61.61;99758.84;4974203;28;728;-74
2022/09/21 06:25:53;;;;;;;;;;;;;;;13.71;61.72;99756.47;4973954;28;893;-74
2022/09/21 06:28:20;;;;;;;;;;;;;;;14.03;60.57;99761.41;4972889;28;1941;-74
2022/09/21 06:30:54;;;;;;;;;;;;;;;14.16;60.13;99762.34;4973708;28;1016;-72
2022/09/21 06:33:22;;;;;;;;;;;;;;;14.41;58.44;99761.81;4973051;28;1429;-73
2022/09/21 06:35:53;;;;;;;;;;;;;;;14.71;57.43;99757.25;4973987;28;826;-73
2022/09/21 06:38:19;;;;;;;;;;;;;;;15.13;55.58;99742.75;4973674;28;901;-75
2022/09/21 06:40:46;;;;;;;;;;;;;;;15.93;53.41;99743.06;4973665;28;827;-72
2022/09/21 06:43:13;;;;;;;;;;;;;;;16.09;51.97;99729.09;4973978;28;798;-74
2022/09/21 06:45:40;;;;;;;;;;;;;;;16.41;51.46;99720.97;4973660;28;859;-74
2022/09/21 06:48:07;;;;;;;;;;;;;;;16.65;50.66;99719.44;4972181;28;1911;-73
2022/09/21 06:50:34;;;;;;;;;;;;;;;16.89;49.83;99714.31;4973644;28;1018;-73
2022/09/21 06:53:01;;;;;;;;;;;;;;;16.93;49.09;99709.41;4972238;28;1233;-74
2022/09/21 06:55:29;;;;;;;;;;;;;;;16.53;49.42;99707.03;4973393;28;862;-73
2022/09/21 06:58:04;;;;;;;;;;;;;;;16.36;50.08;99710.38;4973470;28;866;-72
2022/09/21 07:00:31;;;;;;;;;;;;;;;16.40;49.03;99713.84;4973235;28;835;-73
2022/09/21 07:06:00;;;;;;;;;;;;;;;16.51;49.45;99698.38;4973535;28;626;-72
2022/09/21 07:08:27;;;;;;;;;;;;;;;16.63;49.72;99707.19;4973160;28;1946;-74
2022/09/21 07:10:57;;;;;;;;;;;;;;;16.69;49.54;99708.97;4973195;28;898;-72
2022/09/21 07:13:28;;;;;;;;;;;;;;;16.98;48.71;99712.88;4973189;28;894;-73
2022/09/21 07:15:54;;;;;;;;;;;;;;;17.14;48.55;99721.91;4973303;28;850;-72
2022/09/21 07:18:21;;;;;;;;;;;;;;;17.24;46.89;99714.41;4973056;28;870;-72
2022/09/21 07:20:48;;;;;;;;;;;;;;;17.00;47.43;99713.19;4973075;28;858;-71
2022/09/21 07:23:16;;;;;;;;;;;;;;;16.40;48.31;99711.06;4972976;28;862;-73
2022/09/21 07:26:01;;;;;;;;;;;;;;;16.09;48.99;99717.16;4972907;28;814;-73
2022/09/21 07:28:27;;;;;;;;;;;;;;;16.69;48.31;99714.53;4972817;28;1941;-73
2022/09/21 07:30:54;;;;;;;;;;;;;;;17.97;45.39;99712.72;4973048;28;946;-75
2022/09/21 07:33:24;;;;;;;;;;;;;;;18.75;43.23;99709.69;4972667;28;1228;-76
2022/09/21 07:35:55;;;;;;;;;;;;;;;19.27;42.69;99721.22;4971853;28;987;-76
2022/09/21 07:38:21;;;;;;;;;;;;;;;19.68;40.74;99715.50;4972822;28;592;-75
2022/09/21 07:53:00;;;;;;;;;;;;;;;20.76;37.91;99706.56;4976930;28;689;-74
2022/09/21 07:55:27;;;;;;;;;;;;;;;20.84;38.32;99717.44;4977423;28;838;-74
2022/09/21 08:10:05;;;;;;;;;;;;;;;20.43;37.85;99709.31;4976697;28;1954;-73
2022/09/21 08:12:32;;;;;;;;;;;;;;;20.15;38.42;99709.38;4976440;28;799;-76
2022/09/21 08:14:58;;;;;;;;;;;;;;;20.10;38.31;99712.03;4976329;28;886;-76
2022/09/21 08:17:25;;;;;;;;;;;;;;;20.52;38.30;99714.88;4976354;28;830;-74
2022/09/21 08:32:08;;;;;;;;;;;;;;;20.49;38.03;99704.59;4976152;28;1216;-77
2022/09/21 08:34:37;;;;;;;;;;;;;;;20.37;37.84;99719.63;4974598;28;1070;-74
2022/09/21 08:37:03;;;;;;;;;;;;;;;20.26;37.44;99713.72;4975825;28;858;-73
2022/09/21 08:39:32;;;;;;;;;;;;;;;20.38;37.84;99715.56;4974673;28;1344;-76
2022/09/21 08:42:01;;;;;;;;;;;;;;;20.60;37.53;99699.28;4975868;28;799;-73
2022/09/21 08:44:32;;;;;;;;;;;;;;;20.53;37.28;99698.84;4975676;28;795;-72
2022/09/21 08:47:09;;;;;;;;;;;;;;;20.16;37.65;99702.53;4975670;28;862;-71
2022/09/21 08:49:38;;;;;;;;;;;;;;;20.34;37.64;99709.34;4975560;28;1954;-72
2022/09/21 08:52:06;;;;;;;;;;;;;;;20.27;37.45;99707.66;4975576;28;882;-75
2022/09/21 08:54:42;;;;;;;;;;;;;;;20.56;37.49;99698.66;4975991;28;787;-73
2022/09/21 08:57:11;;;;;;;;;;;;;;;21.06;36.52;99703.13;4974741;28;898;-74
2022/09/21 08:59:41;;;;;;;;;;;;;;;21.54;35.98;99697.50;4975495;28;820;-75
2022/09/21 09:02:21;;;;;;;;;;;;;;;21.60;35.99;99704.78;4974020;28;1214;-74
2022/09/21 09:04:50;;;;;;;;;;;;;;;21.84;34.63;99691.94;4975405;28;823;-72
2022/09/21 09:07:23;;;;;;;;;;;;;;;21.98;35.02;99694.00;4973966;28;1078;-70
2022/09/21 09:09:59;;;;;;;;;;;;;;;22.03;35.24;99688.44;4975316;28;1954;-72
2022/09/21 09:12:26;;;;;;;;;;;;;;;22.06;34.32;99700.00;4975295;28;839;-71
2022/09/21 09:15:19;;;;;;;;;;;;;;;22.11;34.99;99685.28;4975186;28;858;-71
2022/09/21 09:18:10;;;;;;;;;;;;;;;21.82;34.72;99681.94;4971878;28;1161;-74
2022/09/21 09:20:38;;;;;;;;;;;;;;;22.03;34.94;99682.81;4963926;28;1375;-71
2022/09/21 09:23:31;;;;;;;;;;;;;;;21.52;34.05;99691.59;4975458;28;834;-72
2022/09/21 09:26:04;;;;;;;;;;;;;;;20.68;35.61;99693.34;4971738;28;1062;-74
2022/09/21 09:28:30;;;;;;;;;;;;;;;20.25;37.17;99693.31;4974609;28;1882;-75
2022/09/21 09:30:59;;;;;;;;;;;;;;;20.34;36.66;99692.50;4973626;28;1320;-72
2022/09/21 09:33:42;;;;;;;;;;;;;;;20.16;37.32;99682.91;4974535;28;1448;-74
2022/09/21 09:36:10;;;;;;;;;;;;;;;20.79;37.10;99671.91;4973535;28;878;-74
2022/09/21 09:38:56;;;;;;;;;;;;;;;21.49;35.77;99676.47;4973427;28;1320;-73
2022/09/21 09:41:49;;;;;;;;;;;;;;;21.39;34.76;99677.75;4974700;28;870;-71
2022/09/21 09:44:33;;;;;;;;;;;;;;;21.65;34.83;99678.03;4971587;28;1107;-75
2022/09/21 09:47:07;;;;;;;;;;;;;;;22.08;34.15;99669.34;4974908;28;886;-71
2022/09/21 09:49:52;;;;;;;;;;;;;;;21.53;34.53;99663.00;4974478;28;1964;-72
2022/09/21 09:52:19;;;;;;;;;;;;;;;20.65;35.98;99663.38;4974388;28;951;-69
2022/09/21 09:54:47;;;;;;;;;;;;;;;19.95;36.94;99675.44;4974421;28;856;-73
2022/09/21 09:57:19;;;;;;;;;;;;;;;19.94;37.52;99671.84;4974406;28;815;-74
2022/09/21 09:59:54;;;;;;;;;;;;;;;20.84;36.46;99658.47;4974656;28;760;-73
2022/09/21 10:02:22;;;;;;;;;;;;;;;21.16;35.49;99659.66;4974320;28;916;-73
2022/09/21 10:05:04;;;;;;;;;;;;;;;21.54;35.10;99658.91;4972975;28;1169;-71
2022/09/21 10:07:35;;;;;;;;;;;;;;;21.48;34.02;99652.41;4974235;28;1128;-73
2022/09/21 10:10:02;;;;;;;;;;;;;;;21.47;34.21;99659.28;4973368;28;1948;-74
2022/09/21 10:12:29;;;;;;;;;;;;;;;21.61;33.99;99638.88;4974268;28;886;-71
2022/09/21 10:14:58;;;;;;;;;;;;;;;21.89;33.76;99649.06;4974071;28;866;-69
2022/09/21 10:17:26;;;;;;;;;;;;;;;21.77;32.77;99646.06;4973987;28;886;-73
2022/09/21 10:20:04;;;;;;;;;;;;;;;22.24;33.06;99648.41;4973933;28;795;-71
2022/09/21 10:22:31;;;;;;;;;;;;;;;22.47;33.07;99644.69;4974016;28;905;-71
2022/09/21 10:25:00;;;;;;;;;;;;;;;22.59;32.36;99640.75;4973774;28;819;-70
2022/09/21 10:27:33;;;;;;;;;;;;;;;22.65;32.35;99643.66;4973664;28;811;-71
2022/09/21 10:42:48;;;;;;;;;;;;;;;23.20;30.93;99647.75;4972954;28;1182;-75
2022/09/21 10:45:17;;;;;;;;;;;;;;;23.06;31.50;99638.09;4973567;28;811;-71
2022/09/21 10:47:48;;;;;;;;;;;;;;;22.96;31.06;99637.44;4973479;28;858;-74
2022/09/21 10:50:34;;;;;;;;;;;;;;;23.12;31.24;99638.94;4972237;28;1938;-73
2022/09/21 10:53:10;;;;;;;;;;;;;;;23.33;31.20;99631.25;4973435;28;823;-75
2022/09/21 10:55:38;;;;;;;;;;;;;;;23.70;31.19;99633.41;4973404;28;795;-74
2022/09/21 10:58:09;;;;;;;;;;;;;;;24.14;30.50;99632.31;4973216;28;872;-73
2022/09/21 11:00:46;;;;;;;;;;;;;;;24.43;29.85;99639.75;4971967;28;1328;-73
2022/09/21 11:03:24;;;;;;;;;;;;;;;23.87;29.89;99641.31;4973622;28;842;-72
2022/09/21 11:18:12;;;;;;;;;;;;;;;22.93;31.64;99638.41;4973312;28;609;-72
2022/09/21 11:20:59;;;;;;;;;;;;;;;22.66;32.54;99633.16;4972719;28;827;-71
2022/09/21 11:23:35;;;;;;;;;;;;;;;23.24;32.24;99639.84;4973116;28;1151;-75
2022/09/21 11:26:05;;;;;;;;;;;;;;;23.78;32.06;99637.38;4972887;28;897;-72
2022/09/21 11:28:34;;;;;;;;;;;;;;;24.28;31.15;99633.44;4972879;28;1959;-72
2022/09/21 11:31:08;;;;;;;;;;;;;;;24.12;31.00;99631.28;4972852;28;1140;-72
2022/09/21 11:33:41;;;;;;;;;;;;;;;23.80;30.78;99642.53;4972831;28;842;-75
2022/09/21 11:36:15;;;;;;;;;;;;;;;23.44;31.07;99639.06;4971957;28;1259;-73
2022/09/21 11:38:55;;;;;;;;;;;;;;;23.15;31.13;99626.69;4972772;28;803;-72
2022/09/21 11:41:22;;;;;;;;;;;;;;;22.48;32.13;99637.78;4972677;28;1422;-71
2022/09/21 11:43:51;;;;;;;;;;;;;;;22.43;32.56;99624.41;4972986;28;867;-71
2022/09/21 11:46:50;;;;;;;;;;;;;;;22.67;32.25;99629.09;4972777;28;882;-72
2022/09/21 11:49:26;;;;;;;;;;;;;;;22.73;31.81;99618.69;4930143;28;1904;-72
2022/09/21 11:51:59;;;;;;;;;;;;;;;22.98;31.55;99626.44;4972780;28;881;-69
2022/09/21 11:54:44;;;;;;;;;;;;;;;22.37;31.87;99626.34;4972642;28;850;-70
2022/09/21 11:57:21;;;;;;;;;;;;;;;21.70;32.71;99629.56;4972515;28;831;-72
2022/09/21 11:59:54;;;;;;;;;;;;;;;21.95;32.94;99622.56;4971372;28;1214;-70
2022/09/21 12:02:27;;;;;;;;;;;;;;;22.59;32.14;99623.84;4972800;28;881;-70
2022/09/21 12:04:58;;;;;;;;;;;;;;;22.75;32.06;99627.41;4972949;28;779;-72
2022/09/21 12:07:36;;;;;;;;;;;;;;;23.05;31.75;99625.28;4972525;28;878;-71
2022/09/21 12:10:03;;;;;;;;;;;;;;;23.01;30.69;99641.63;4973045;28;1890;-73
2022/09/21 12:12:33;;;;;;;;;;;;;;;23.36;30.68;99623.84;4973081;28;854;-73
2022/09/21 12:15:18;;;;;;;;;;;;;;;23.31;30.42;99616.09;4972756;28;792;-72
2022/09/21 12:17:57;;;;;;;;;;;;;;;22.33;31.19;99631.41;4972701;28;859;-74
2022/09/21 12:20:43;;;;;;;;;;;;;;;21.90;32.26;99620.44;4972558;28;928;-72
2022/09/21 12:23:42;;;;;;;;;;;;;;;21.92;31.76;99620.75;4972422;28;831;-73
2022/09/21 12:26:09;;;;;;;;;;;;;;;21.81;32.05;99615.69;4930291;28;1134;-72
2022/09/21 12:28:45;;;;;;;;;;;;;;;22.32;32.15;99607.31;4972583;28;1953;-73
2022/09/21 12:31:32;;;;;;;;;;;;;;;22.65;31.63;99614.72;4972238;28;920;-72
2022/09/21 12:33:59;;;;;;;;;;;;;;;22.90;31.12;99613.28;4962306;28;1182;-72
2022/09/21 12:36:38;;;;;;;;;;;;;;;23.31;30.71;99602.00;4976121;28;902;-71
2022/09/21 12:39:10;;;;;;;;;;;;;;;23.65;29.87;99600.28;4975948;28;1236;-75
2022/09/21 12:41:45;;;;;;;;;;;;;;;23.41;29.64;99603.41;4975684;28;1270;-74
2022/09/21 12:44:20;;;;;;;;;;;;;;;23.07;30.27;99605.81;4975769;28;1000;-69
2022/09/21 12:46:50;;;;;;;;;;;;;;;22.73;30.57;99604.59;4976432;28;795;-70
2022/09/21 12:49:20;;;;;;;;;;;;;;;22.69;30.73;99595.56;4990430;28;1959;-71
2022/09/21 12:51:53;;;;;;;;;;;;;;;22.82;30.95;99593.94;4975771;28;866;-72
2022/09/21 12:54:25;;;;;;;;;;;;;;;22.74;30.77;99594.88;4975623;28;843;-70
2022/09/21 12:57:21;;;;;;;;;;;;;;;22.59;30.95;99590.06;4975521;28;858;-71
2022/09/21 12:59:53;;;;;;;;;;;;;;;23.08;30.28;99598.13;4975806;28;823;-70
2022/09/21 13:02:39;;;;;;;;;;;;;;;23.12;30.24;99598.69;4975423;28;791;-70
2022/09/21 13:05:13;;;;;;;;;;;;;;;23.46;29.77;99593.44;4974167;28;1229;-71
2022/09/21 13:07:58;;;;;;;;;;;;;;;23.91;28.75;99591.84;4975273;28;898;-74
2022/09/21 13:10:30;;;;;;;;;;;;;;;24.16;28.54;99593.06;4973908;28;1945;-72
2022/09/21 13:13:00;;;;;;;;;;;;;;;24.47;29.08;99591.47;4973924;28;1193;-72
2022/09/21 13:15:31;;;;;;;;;;;;;;;25.15;28.39;99591.81;4975178;28;838;-72
2022/09/21 13:18:00;;;;;;;;;;;;;;;25.17;28.03;99590.03;4974176;28;1114;-72
2022/09/21 13:20:33;;;;;;;;;;;;;;;24.97;27.55;99591.00;4975266;28;835;-72
2022/09/21 13:23:01;;;;;;;;;;;;;;;24.53;28.01;99592.31;4974250;28;1503;-71
2022/09/21 13:25:29;;;;;;;;;;;;;;;23.16;29.35;99585.16;4974935;28;822;-70
2022/09/21 13:28:03;;;;;;;;;;;;;;;22.14;30.29;99591.41;4975039;28;801;-71
2022/09/21 13:30:31;;;;;;;;;;;;;;;21.68;31.34;99592.72;4974914;28;1886;-72
2022/09/21 13:32:58;;;;;;;;;;;;;;;21.15;31.35;99596.28;4974846;28;847;-71
2022/09/21 13:35:43;;;;;;;;;;;;;;;20.82;31.63;99599.94;4974938;28;827;-71
2022/09/21 13:38:30;;;;;;;;;;;;;;;21.09;31.03;99598.22;4973499;28;1189;-72
2022/09/21 13:40:59;;;;;;;;;;;;;;;21.10;30.58;99600.53;4974404;28;1246;-73
2022/09/21 13:43:47;;;;;;;;;;;;;;;20.63;31.21;99590.84;4974498;28;763;-68
2022/09/21 13:46:45;;;;;;;;;;;;;;;20.61;31.96;99596.16;4935606;28;1111;-70
2022/09/21 13:49:12;;;;;;;;;;;;;;;21.66;31.13;99600.06;4974561;28;1918;-72
2022/09/21 13:51:55;;;;;;;;;;;;;;;21.54;30.76;99599.09;4974695;28;791;-71
2022/09/21 13:54:24;;;;;;;;;;;;;;;20.88;31.32;99592.41;4974545;28;906;-70
2022/09/21 13:57:09;;;;;;;;;;;;;;;20.53;32.12;99594.97;4974423;28;867;-71
2022/09/21 13:59:39;;;;;;;;;;;;;;;20.22;32.86;99596.03;4974553;28;1041;-70
2022/09/21 14:02:20;;;;;;;;;;;;;;;20.78;32.58;99593.72;4973157;28;1390;-70
2022/09/21 14:04:49;;;;;;;;;;;;;;;22.56;31.18;99593.88;4972945;28;1260;-71
2022/09/21 14:07:17;;;;;;;;;;;;;;;23.84;29.06;99598.72;4974225;28;909;-71
2022/09/21 14:09:54;;;;;;;;;;;;;;;24.18;28.09;99592.56;4972816;28;1894;-71
2022/09/21 14:12:24;;;;;;;;;;;;;;;24.05;28.38;99590.16;4974117;28;831;-70
2022/09/21 14:15:11;;;;;;;;;;;;;;;23.66;28.70;99593.38;4974087;28;811;-71
2022/09/21 14:17:41;;;;;;;;;;;;;;;23.20;29.74;99589.31;4974034;28;854;-70
2022/09/21 14:20:26;;;;;;;;;;;;;;;23.16;29.51;99591.56;4974078;28;870;-70
2022/09/21 14:23:11;;;;;;;;;;;;;;;22.03;30.88;99592.00;4973873;28;802;-68
2022/09/21 14:25:50;;;;;;;;;;;;;;;21.05;31.93;99598.38;4973860;28;836;-70
2022/09/21 14:28:18;;;;;;;;;;;;;;;20.24;33.05;99595.56;4974578;28;827;-70
2022/09/21 14:30:50;;;;;;;;;;;;;;;19.75;33.71;99603.03;4972673;28;1779;-69
2022/09/21 14:33:41;;;;;;;;;;;;;;;19.41;34.58;99613.31;4972524;28;1446;-69
2022/09/21 14:36:10;;;;;;;;;;;;;;;19.05;35.14;99609.28;4963868;28;1287;-70
2022/09/21 14:38:41;;;;;;;;;;;;;;;18.87;35.79;99603.66;4973743;28;831;-70
2022/09/21 14:41:15;;;;;;;;;;;;;;;18.71;36.21;99605.47;4973443;28;1382;-70
2022/09/21 14:43:42;;;;;;;;;;;;;;;18.56;36.91;99601.69;4974336;28;827;-70
2022/09/21 14:46:24;;;;;;;;;;;;;;;18.39;37.42;99606.78;4973755;28;795;-70
2022/09/21 14:49:18;;;;;;;;;;;;;;;18.24;37.82;99603.00;4972195;28;1934;-69
2022/09/21 14:51:51;;;;;;;;;;;;;;;18.08;37.92;99610.38;4970983;28;1030;-70
2022/09/21 14:54:25;;;;;;;;;;;;;;;17.99;38.37;99607.56;4972820;28;798;-70
2022/09/21 14:56:59;;;;;;;;;;;;;;;17.82;39.64;99623.75;4973456;28;787;-69
2022/09/21 14:59:29;;;;;;;;;;;;;;;17.54;40.77;99620.75;4973648;28;806;-69
2022/09/21 15:01:58;;;;;;;;;;;;;;;17.31;41.32;99630.34;4973444;28;795;-70
2022/09/21 15:04:30;;;;;;;;;;;;;;;17.17;41.79;99635.66;4972041;28;1359;-70
2022/09/21 15:12:59;;;;;;;;;;;;;;;16.87;43.02;99655.38;4973304;28;629;-71